Time;durP1;ratioP1;P1;durP2;ratioP2;P2;SDS_P1;SDS_P2;PMS_P1;PMS_P2;Temp;Humidity;BMP_temperature;BMP_pressure;BME280_temperature;BME280_humidity;BME280_pressure;Samples;Min_cycle;Max_cycle;Signal;HPM_P1;HPM_P2
2021/03/28 00:00:46;;;;;;;;;;;4.60;65.70;;;;;;4995369;28;19910;-77
2021/03/28 00:03:17;;;;;;;;;;;4.50;65.80;;;;;;4995082;28;20374;-78
2021/03/28 00:05:42;;;;;;;;;;;4.50;65.80;;;;;;4994206;28;20001;-76
2021/03/28 00:08:26;;;;;;;;;;;4.50;66.00;;;;;;4993788;28;20430;-76
2021/03/28 00:10:52;;;;;;;;;;;4.40;66.10;;;;;;4974632;28;20383;-76
2021/03/28 00:13:21;;;;;;;;;;;4.40;66.30;;;;;;4993095;28;19910;-77
2021/03/28 00:15:55;;;;;;;;;;;4.40;66.40;;;;;;4991482;28;19909;-75
2021/03/28 00:18:31;;;;;;;;;;;4.40;66.40;;;;;;4991754;28;19910;-75
2021/03/28 00:21:09;;;;;;;;;;;4.30;66.40;;;;;;4988736;28;20338;-76
2021/03/28 00:23:42;;;;;;;;;;;4.30;66.90;;;;;;4973872;28;19914;-76
2021/03/28 00:26:21;;;;;;;;;;;4.30;67.30;;;;;;4985705;28;19933;-77
2021/03/28 00:28:51;;;;;;;;;;;4.30;67.40;;;;;;4976457;28;19918;-78
2021/03/28 00:31:31;;;;;;;;;;;4.20;67.30;;;;;;4977989;28;19918;-77
2021/03/28 00:34:00;;;;;;;;;;;4.20;68.50;;;;;;4986815;28;19939;-76
2021/03/28 00:36:30;;;;;;;;;;;4.20;67.60;;;;;;4982753;28;20009;-76
2021/03/28 00:38:59;;;;;;;;;;;4.20;67.70;;;;;;4987405;28;20275;-76
2021/03/28 00:41:40;;;;;;;;;;;4.20;67.70;;;;;;4982188;28;19911;-76
2021/03/28 00:44:15;;;;;;;;;;;4.20;68.60;;;;;;4980702;28;19914;-75
2021/03/28 00:46:43;;;;;;;;;;;4.10;68.40;;;;;;4981284;28;19985;-77
2021/03/28 00:49:10;;;;;;;;;;;4.10;68.60;;;;;;4983368;28;19909;-76
2021/03/28 00:51:42;;;;;;;;;;;4.10;68.70;;;;;;4979543;28;19918;-74
2021/03/28 00:54:12;;;;;;;;;;;4.10;68.50;;;;;;4991944;28;19921;-77
2021/03/28 00:56:40;;;;;;;;;;;4.00;68.50;;;;;;4994608;28;19910;-78
2021/03/28 00:59:17;;;;;;;;;;;4.00;68.70;;;;;;4994621;28;20383;-76
2021/03/28 01:01:46;;;;;;;;;;;3.90;68.90;;;;;;4994683;28;20061;-77
2021/03/28 01:04:25;;;;;;;;;;;3.90;69.10;;;;;;4994237;28;19910;-77
2021/03/28 01:06:50;;;;;;;;;;;3.90;69.10;;;;;;4994750;28;20282;-78
2021/03/28 01:09:26;;;;;;;;;;;3.90;69.20;;;;;;4994454;28;19920;-76
2021/03/28 01:12:00;;;;;;;;;;;3.80;69.30;;;;;;4994350;28;19909;-76
2021/03/28 01:14:29;;;;;;;;;;;3.80;69.90;;;;;;4994467;28;19928;-76
2021/03/28 01:17:13;;;;;;;;;;;3.80;69.80;;;;;;4994314;28;20008;-77
2021/03/28 01:19:53;;;;;;;;;;;3.70;69.80;;;;;;4993987;28;19910;-77
2021/03/28 01:22:18;;;;;;;;;;;3.80;70.20;;;;;;4994131;28;19948;-76
2021/03/28 01:24:47;;;;;;;;;;;3.70;70.30;;;;;;4993997;28;19949;-77
2021/03/28 01:27:18;;;;;;;;;;;3.80;70.70;;;;;;4994209;28;19917;-78
2021/03/28 01:29:47;;;;;;;;;;;3.80;70.50;;;;;;4989893;28;19958;-76
2021/03/28 01:32:21;;;;;;;;;;;3.80;70.60;;;;;;4976688;28;19910;-77
2021/03/28 01:34:57;;;;;;;;;;;3.80;70.80;;;;;;4988063;28;19973;-77
2021/03/28 01:37:41;;;;;;;;;;;3.70;70.70;;;;;;4994075;28;20001;-77
2021/03/28 01:40:16;;;;;;;;;;;3.70;70.60;;;;;;4993878;28;19968;-76
2021/03/28 01:42:45;;;;;;;;;;;3.60;70.50;;;;;;4993707;28;19920;-77
2021/03/28 01:45:29;;;;;;;;;;;3.60;70.70;;;;;;4993151;28;19910;-78
2021/03/28 01:47:55;;;;;;;;;;;3.50;70.70;;;;;;4993810;28;19910;-76
2021/03/28 01:50:23;;;;;;;;;;;3.50;70.70;;;;;;4994058;28;20322;-77
2021/03/28 01:52:49;;;;;;;;;;;3.50;70.70;;;;;;4993719;28;19997;-77
2021/03/28 01:55:21;;;;;;;;;;;3.50;70.70;;;;;;4993461;28;20016;-77
2021/03/28 01:57:46;;;;;;;;;;;3.40;70.70;;;;;;4993479;28;19913;-77
2021/03/28 02:00:21;;;;;;;;;;;3.40;70.80;;;;;;4976166;28;20424;-76
2021/03/28 02:02:55;;;;;;;;;;;3.40;70.80;;;;;;4993475;28;20293;-77
2021/03/28 02:05:23;;;;;;;;;;;3.30;71.00;;;;;;4993589;28;19976;-76
2021/03/28 02:07:52;;;;;;;;;;;3.30;71.10;;;;;;4993748;28;20322;-76
2021/03/28 02:10:23;;;;;;;;;;;3.30;71.10;;;;;;4993668;28;19953;-76
2021/03/28 02:13:07;;;;;;;;;;;3.30;71.10;;;;;;4993328;28;19914;-77
2021/03/28 02:15:35;;;;;;;;;;;3.30;71.20;;;;;;4993315;28;19918;-75
2021/03/28 02:18:20;;;;;;;;;;;3.20;71.20;;;;;;4993131;28;19916;-75
2021/03/28 02:20:52;;;;;;;;;;;3.20;71.40;;;;;;4993400;28;19910;-76
2021/03/28 02:23:44;;;;;;;;;;;3.10;71.20;;;;;;4993241;28;19913;-77
2021/03/28 02:26:28;;;;;;;;;;;3.10;71.40;;;;;;4977554;28;19918;-76
2021/03/28 02:29:23;;;;;;;;;;;3.10;71.40;;;;;;4976246;28;19913;-77
2021/03/28 02:31:51;;;;;;;;;;;3.10;71.60;;;;;;4911747;28;19969;-75
2021/03/28 02:34:20;;;;;;;;;;;3.00;71.50;;;;;;4989982;28;19925;-77
2021/03/28 02:37:05;;;;;;;;;;;3.00;71.40;;;;;;4993140;28;19942;-75
2021/03/28 02:39:52;;;;;;;;;;;3.00;71.30;;;;;;4993171;28;19916;-76
2021/03/28 02:42:32;;;;;;;;;;;3.00;71.50;;;;;;4987140;28;19913;-76
2021/03/28 02:45:07;;;;;;;;;;;3.00;71.60;;;;;;4993083;28;19914;-76
2021/03/28 02:47:51;;;;;;;;;;;3.00;71.70;;;;;;4990085;28;19918;-77
2021/03/28 02:50:23;;;;;;;;;;;2.90;71.80;;;;;;4995385;28;19910;-75
2021/03/28 02:52:54;;;;;;;;;;;2.90;71.90;;;;;;4989979;28;20008;-75
2021/03/28 02:55:40;;;;;;;;;;;2.90;71.90;;;;;;4989926;28;19910;-76
2021/03/28 02:58:08;;;;;;;;;;;2.90;72.10;;;;;;4996276;28;19910;-76
2021/03/28 03:00:34;;;;;;;;;;;2.90;72.20;;;;;;4996781;28;19986;-76
2021/03/28 03:03:12;;;;;;;;;;;2.90;72.20;;;;;;4996741;28;20359;-77
2021/03/28 03:05:54;;;;;;;;;;;2.90;72.20;;;;;;4996995;28;20462;-76
2021/03/28 03:08:38;;;;;;;;;;;2.90;72.20;;;;;;4984272;28;19909;-76
2021/03/28 03:11:08;;;;;;;;;;;2.90;72.40;;;;;;4996553;28;20286;-76
2021/03/28 03:14:03;;;;;;;;;;;2.80;72.50;;;;;;4979084;28;19914;-74
2021/03/28 03:16:44;;;;;;;;;;;2.80;72.50;;;;;;4994946;28;19948;-75
2021/03/28 03:19:28;;;;;;;;;;;2.80;72.60;;;;;;4996499;28;20298;-75
2021/03/28 03:22:03;;;;;;;;;;;2.70;72.30;;;;;;4983647;28;19914;-76
2021/03/28 03:24:29;;;;;;;;;;;2.80;72.30;;;;;;4996147;28;19921;-76
2021/03/28 03:27:04;;;;;;;;;;;2.80;72.50;;;;;;4978867;28;19916;-75
2021/03/28 03:29:46;;;;;;;;;;;2.80;72.60;;;;;;4996175;28;19913;-75
2021/03/28 03:32:31;;;;;;;;;;;2.80;72.70;;;;;;4967108;28;19910;-75
2021/03/28 03:35:02;;;;;;;;;;;2.80;72.80;;;;;;4996405;28;19916;-73
2021/03/28 03:37:43;;;;;;;;;;;2.80;73.00;;;;;;4996289;28;19910;-77
2021/03/28 03:40:24;;;;;;;;;;;2.90;72.90;;;;;;4992146;28;19969;-74
2021/03/28 03:42:56;;;;;;;;;;;2.90;72.90;;;;;;4985786;28;20286;-77
2021/03/28 03:45:34;;;;;;;;;;;2.90;73.00;;;;;;4995794;28;19918;-76
2021/03/28 03:48:09;;;;;;;;;;;3.00;73.20;;;;;;4988119;28;19988;-77
2021/03/28 03:50:34;;;;;;;;;;;3.00;72.80;;;;;;4995613;28;19910;-76
2021/03/28 03:53:03;;;;;;;;;;;3.10;72.80;;;;;;4988826;28;20024;-76
2021/03/28 03:55:56;;;;;;;;;;;3.10;72.70;;;;;;4993254;28;19936;-76
2021/03/28 03:58:29;;;;;;;;;;;3.20;72.80;;;;;;4995769;28;19910;-76
2021/03/28 04:01:04;;;;;;;;;;;3.30;73.00;;;;;;4995592;28;20282;-77
2021/03/28 04:03:30;;;;;;;;;;;3.30;73.00;;;;;;4995773;28;19910;-77
2021/03/28 04:06:01;;;;;;;;;;;3.40;72.90;;;;;;4995668;28;20413;-76
2021/03/28 04:08:26;;;;;;;;;;;3.40;73.00;;;;;;4995474;28;19927;-77
2021/03/28 04:11:19;;;;;;;;;;;3.50;73.10;;;;;;4995699;28;20185;-78
2021/03/28 04:13:54;;;;;;;;;;;3.50;73.20;;;;;;4995726;28;19925;-77
2021/03/28 04:16:39;;;;;;;;;;;3.60;73.50;;;;;;4992856;28;19917;-77
2021/03/28 04:19:13;;;;;;;;;;;3.80;74.40;;;;;;4995430;28;19916;-74
2021/03/28 04:21:57;;;;;;;;;;;4.00;74.80;;;;;;4995248;28;19916;-78
2021/03/28 04:24:28;;;;;;;;;;;4.40;74.60;;;;;;4995212;28;19922;-76
2021/03/28 04:26:56;;;;;;;;;;;4.90;73.90;;;;;;4995179;28;19914;-76
2021/03/28 04:29:22;;;;;;;;;;;5.30;73.10;;;;;;4995304;28;19910;-76
2021/03/28 04:32:06;;;;;;;;;;;5.60;72.10;;;;;;4995026;28;20005;-76
2021/03/28 04:34:32;;;;;;;;;;;6.00;71.40;;;;;;4995047;28;19949;-76
2021/03/28 04:37:55;;;;;;;;;;;6.20;70.10;;;;;;4995166;28;19983;-76
2021/03/28 04:40:30;;;;;;;;;;;6.10;69.30;;;;;;4980727;28;20331;-76
2021/03/28 04:43:14;;;;;;;;;;;5.80;69.10;;;;;;4974069;28;19988;-75
2021/03/28 04:45:48;;;;;;;;;;;5.70;69.20;;;;;;4981755;28;20386;-78
2021/03/28 04:48:37;;;;;;;;;;;5.80;69.10;;;;;;4993433;28;19945;-77
2021/03/28 04:51:16;;;;;;;;;;;6.00;68.10;;;;;;4949137;28;19914;-76
2021/03/28 04:53:54;;;;;;;;;;;5.80;67.00;;;;;;4994921;28;21685;-77
2021/03/28 04:56:22;;;;;;;;;;;5.60;67.10;;;;;;4994781;28;19918;-77
2021/03/28 04:59:08;;;;;;;;;;;5.50;67.70;;;;;;4994554;28;19980;-79
2021/03/28 05:01:52;;;;;;;;;;;5.40;67.90;;;;;;4994648;28;19913;-77
2021/03/28 05:04:36;;;;;;;;;;;5.30;67.80;;;;;;4994192;28;19914;-77
2021/03/28 05:07:20;;;;;;;;;;;5.20;68.00;;;;;;4995488;28;19916;-78
2021/03/28 05:10:04;;;;;;;;;;;5.10;68.20;;;;;;4977043;28;20290;-77
2021/03/28 05:12:30;;;;;;;;;;;5.10;68.30;;;;;;4994319;28;19996;-75
2021/03/28 05:14:58;;;;;;;;;;;5.00;68.30;;;;;;4994180;28;20319;-78
2021/03/28 05:17:42;;;;;;;;;;;5.00;68.60;;;;;;4994302;28;19953;-76
2021/03/28 05:20:16;;;;;;;;;;;5.00;68.70;;;;;;4980419;28;20374;-76
2021/03/28 05:22:42;;;;;;;;;;;5.00;68.90;;;;;;4994065;28;19952;-76
2021/03/28 05:25:19;;;;;;;;;;;5.00;69.10;;;;;;4993876;28;19961;-76
2021/03/28 05:28:03;;;;;;;;;;;5.00;69.10;;;;;;4994084;28;19909;-77
2021/03/28 05:30:44;;;;;;;;;;;5.10;69.20;;;;;;4981898;28;19914;-78
2021/03/28 05:33:25;;;;;;;;;;;5.10;69.20;;;;;;4988401;28;20374;-76
2021/03/28 05:36:07;;;;;;;;;;;5.10;69.00;;;;;;4994047;28;19917;-76
2021/03/28 05:38:59;;;;;;;;;;;5.20;69.00;;;;;;4994629;28;19910;-76
2021/03/28 05:41:43;;;;;;;;;;;5.20;69.10;;;;;;4986236;28;20359;-76
2021/03/28 05:44:33;;;;;;;;;;;5.30;68.90;;;;;;4984442;28;19914;-77
2021/03/28 05:47:02;;;;;;;;;;;5.40;68.80;;;;;;4976423;28;19910;-76
2021/03/28 05:49:36;;;;;;;;;;;5.50;68.70;;;;;;4993828;28;19963;-76
2021/03/28 05:52:17;;;;;;;;;;;5.50;68.70;;;;;;4994668;28;20306;-77
2021/03/28 05:54:51;;;;;;;;;;;5.60;68.50;;;;;;4985856;28;20382;-78
2021/03/28 05:57:35;;;;;;;;;;;5.60;68.40;;;;;;4996396;28;19960;-78
2021/03/28 06:00:10;;;;;;;;;;;5.70;68.30;;;;;;4994466;28;19972;-79
2021/03/28 06:02:50;;;;;;;;;;;5.80;68.10;;;;;;4993477;28;19910;-77
2021/03/28 06:05:15;;;;;;;;;;;5.90;67.50;;;;;;4993452;28;19922;-77
2021/03/28 06:07:44;;;;;;;;;;;5.90;66.80;;;;;;4993314;28;19913;-76
2021/03/28 06:10:15;;;;;;;;;;;6.00;66.40;;;;;;4993572;28;19910;-80
2021/03/28 06:12:49;;;;;;;;;;;6.10;66.10;;;;;;4993243;28;19914;-76
2021/03/28 06:15:34;;;;;;;;;;;6.10;65.60;;;;;;4993372;28;19910;-75
2021/03/28 06:18:18;;;;;;;;;;;6.20;65.40;;;;;;4990033;28;19910;-79
2021/03/28 06:21:00;;;;;;;;;;;6.30;65.20;;;;;;4976046;28;19917;-77
2021/03/28 06:23:41;;;;;;;;;;;6.30;65.00;;;;;;4993134;28;20005;-76
2021/03/28 06:26:25;;;;;;;;;;;6.40;64.90;;;;;;4993332;28;19914;-76
2021/03/28 06:28:56;;;;;;;;;;;6.40;64.60;;;;;;4981331;28;19920;-77
2021/03/28 06:31:40;;;;;;;;;;;6.50;64.50;;;;;;4993385;28;19957;-76
2021/03/28 06:34:24;;;;;;;;;;;6.60;64.60;;;;;;4997125;28;19910;-76
2021/03/28 06:37:02;;;;;;;;;;;6.70;64.30;;;;;;4995298;28;20025;-77
2021/03/28 06:39:40;;;;;;;;;;;6.80;63.90;;;;;;4979305;28;19941;-77
2021/03/28 06:42:18;;;;;;;;;;;6.90;63.20;;;;;;4996526;28;19963;-78
2021/03/28 06:44:46;;;;;;;;;;;6.90;63.10;;;;;;4981793;28;19965;-76
2021/03/28 06:47:15;;;;;;;;;;;7.00;63.10;;;;;;4977586;28;19942;-76
2021/03/28 06:49:41;;;;;;;;;;;7.10;62.80;;;;;;4982360;28;19925;-76
2021/03/28 06:52:33;;;;;;;;;;;7.20;62.70;;;;;;4985577;28;20374;-79
2021/03/28 06:55:18;;;;;;;;;;;7.20;62.50;;;;;;4978439;28;20353;-77
2021/03/28 06:58:02;;;;;;;;;;;7.30;62.10;;;;;;4991571;28;20390;-76
2021/03/28 07:00:27;;;;;;;;;;;7.40;61.90;;;;;;4985561;28;19961;-76
2021/03/28 07:03:02;;;;;;;;;;;7.50;61.40;;;;;;4994807;28;19913;-77
2021/03/28 07:05:46;;;;;;;;;;;7.60;61.10;;;;;;4996232;28;19921;-78
2021/03/28 07:08:34;;;;;;;;;;;7.70;60.80;;;;;;4984449;28;19914;-79
2021/03/28 07:11:19;;;;;;;;;;;7.70;60.40;;;;;;4979780;28;19909;-81
2021/03/28 07:14:10;;;;;;;;;;;7.90;60.30;;;;;;4975818;28;19917;-80
2021/03/28 07:16:51;;;;;;;;;;;9.10;60.00;;;;;;4996084;28;19921;-78
2021/03/28 07:19:35;;;;;;;;;;;11.20;57.30;;;;;;4996344;28;19910;-80
2021/03/28 07:22:04;;;;;;;;;;;13.20;52.90;;;;;;4989425;28;19910;-79
2021/03/28 07:24:35;;;;;;;;;;;15.00;48.50;;;;;;4995803;28;19929;-80
2021/03/28 07:27:10;;;;;;;;;;;16.30;45.80;;;;;;4978734;28;19925;-79
2021/03/28 07:29:55;;;;;;;;;;;17.30;42.00;;;;;;4991222;28;19952;-78
2021/03/28 07:32:32;;;;;;;;;;;18.10;42.10;;;;;;4993689;28;19914;-78
2021/03/28 07:35:16;;;;;;;;;;;18.90;40.00;;;;;;4981958;28;20331;-76
2021/03/28 07:37:51;;;;;;;;;;;19.40;38.20;;;;;;4995700;28;19910;-78
2021/03/28 07:40:19;;;;;;;;;;;20.30;35.80;;;;;;4993698;28;19917;-78
2021/03/28 07:42:45;;;;;;;;;;;20.60;35.50;;;;;;4994997;28;19968;-77
2021/03/28 07:45:20;;;;;;;;;;;20.60;33.20;;;;;;4995579;28;19926;-78
2021/03/28 07:47:48;;;;;;;;;;;21.00;35.10;;;;;;4996234;28;20329;-80
2021/03/28 07:50:20;;;;;;;;;;;21.70;33.80;;;;;;4996948;28;19914;-84
2021/03/28 07:53:04;;;;;;;;;;;22.00;32.80;;;;;;4996802;28;19953;-85
2021/03/28 07:55:30;;;;;;;;;;;22.30;32.70;;;;;;4995823;28;19914;-82
2021/03/28 07:57:56;;;;;;;;;;;22.30;31.50;;;;;;4995637;28;19914;-80
2021/03/28 08:00:36;;;;;;;;;;;23.10;32.10;;;;;;4978204;28;19910;-81
2021/03/28 08:03:17;;;;;;;;;;;22.90;28.60;;;;;;4994861;28;20032;-78
2021/03/28 08:05:51;;;;;;;;;;;22.30;29.60;;;;;;4995085;28;19920;-74
2021/03/28 08:08:26;;;;;;;;;;;21.50;28.80;;;;;;4994272;28;19910;-76
2021/03/28 08:11:18;;;;;;;;;;;19.80;29.10;;;;;;4994855;28;19914;-79
2021/03/28 08:13:55;;;;;;;;;;;19.30;30.30;;;;;;4994755;28;20282;-80
2021/03/28 08:16:30;;;;;;;;;;;19.10;29.80;;;;;;4989938;28;19967;-82
2021/03/28 08:19:01;;;;;;;;;;;19.50;30.20;;;;;;4995093;28;19909;-75
2021/03/28 08:21:39;;;;;;;;;;;20.00;29.80;;;;;;4983105;28;20299;-77
2021/03/28 08:24:24;;;;;;;;;;;19.50;29.00;;;;;;4977627;28;19910;-77
2021/03/28 08:27:00;;;;;;;;;;;18.40;29.50;;;;;;4987610;28;19914;-79
2021/03/28 08:29:29;;;;;;;;;;;17.30;30.20;;;;;;4987006;28;19968;-78
2021/03/28 08:32:13;;;;;;;;;;;17.30;31.00;;;;;;4994638;28;20013;-76
2021/03/28 08:34:41;;;;;;;;;;;18.50;30.30;;;;;;4988456;28;20009;-78
2021/03/28 08:37:22;;;;;;;;;;;20.40;30.20;;;;;;4994546;28;19980;-75
2021/03/28 08:39:59;;;;;;;;;;;22.30;29.30;;;;;;4992237;28;20294;-75
2021/03/28 08:42:44;;;;;;;;;;;24.00;27.90;;;;;;4994747;28;20045;-75
2021/03/28 08:45:23;;;;;;;;;;;24.10;26.20;;;;;;4994669;28;19914;-76
2021/03/28 08:47:48;;;;;;;;;;;24.60;25.50;;;;;;4976923;28;19917;-78
2021/03/28 08:50:14;;;;;;;;;;;24.40;25.70;;;;;;4994226;28;19914;-78
2021/03/28 08:52:55;;;;;;;;;;;25.00;26.00;;;;;;4986871;28;20009;-77
2021/03/28 08:55:39;;;;;;;;;;;25.70;25.80;;;;;;4991167;28;19917;-75
2021/03/28 08:58:16;;;;;;;;;;;25.80;24.40;;;;;;4995178;28;19910;-78
2021/03/28 09:00:54;;;;;;;;;;;26.30;24.50;;;;;;4993978;28;19957;-75
2021/03/28 09:03:38;;;;;;;;;;;25.50;23.30;;;;;;4991597;28;19917;-77
2021/03/28 09:06:10;;;;;;;;;;;24.80;23.50;;;;;;4991829;28;19949;-77
2021/03/28 09:08:38;;;;;;;;;;;25.20;24.30;;;;;;4994257;28;19918;-79
2021/03/28 09:11:42;;;;;;;;;;;26.10;23.90;;;;;;4993379;28;19937;-77
2021/03/28 09:14:20;;;;;;;;;;;25.90;23.00;;;;;;4953486;28;19914;-77
2021/03/28 09:17:04;;;;;;;;;;;25.80;23.50;;;;;;4993570;28;19921;-79
2021/03/28 09:19:49;;;;;;;;;;;26.20;23.40;;;;;;4993219;28;19914;-74
2021/03/28 09:22:23;;;;;;;;;;;26.40;23.30;;;;;;4991952;28;20005;-77
2021/03/28 09:24:59;;;;;;;;;;;26.60;23.30;;;;;;4966577;28;19921;-75
2021/03/28 09:27:27;;;;;;;;;;;27.00;23.00;;;;;;4983790;28;19914;-75
2021/03/28 09:30:02;;;;;;;;;;;26.60;22.90;;;;;;4992581;28;19921;-76
2021/03/28 09:32:46;;;;;;;;;;;26.80;23.20;;;;;;4992777;28;19964;-76
2021/03/28 09:35:30;;;;;;;;;;;26.70;22.30;;;;;;4993335;28;19922;-77
2021/03/28 09:38:14;;;;;;;;;;;25.20;22.10;;;;;;4993428;28;19957;-79
2021/03/28 09:40:43;;;;;;;;;;;25.20;23.30;;;;;;4981612;28;19910;-76
2021/03/28 09:43:25;;;;;;;;;;;25.60;22.70;;;;;;4993655;28;19921;-75
2021/03/28 09:45:51;;;;;;;;;;;25.60;22.40;;;;;;4993900;28;19910;-76
2021/03/28 09:48:19;;;;;;;;;;;25.40;22.70;;;;;;4993398;28;19910;-74
2021/03/28 09:51:01;;;;;;;;;;;25.60;22.70;;;;;;4993539;28;19979;-75
2021/03/28 09:53:33;;;;;;;;;;;25.90;23.40;;;;;;4984310;28;20027;-76
2021/03/28 09:56:07;;;;;;;;;;;25.80;22.30;;;;;;4993586;28;19928;-74
2021/03/28 09:58:42;;;;;;;;;;;26.60;22.90;;;;;;4993269;28;20007;-75
2021/03/28 10:01:27;;;;;;;;;;;27.70;22.40;;;;;;4993548;28;19909;-76
2021/03/28 10:04:05;;;;;;;;;;;27.70;21.80;;;;;;4993218;28;19917;-76
2021/03/28 10:06:31;;;;;;;;;;;27.80;22.50;;;;;;4993257;28;20256;-75
2021/03/28 10:09:11;;;;;;;;;;;27.70;22.10;;;;;;4993131;28;19910;-76
2021/03/28 10:11:36;;;;;;;;;;;27.70;21.70;;;;;;4993463;28;19917;-78
2021/03/28 10:14:20;;;;;;;;;;;27.50;21.90;;;;;;4993587;28;19913;-75
2021/03/28 10:17:04;;;;;;;;;;;27.60;21.90;;;;;;4993367;28;19914;-76
2021/03/28 10:19:41;;;;;;;;;;;27.40;21.90;;;;;;4992265;28;19960;-78
2021/03/28 10:22:25;;;;;;;;;;;27.10;21.80;;;;;;4993708;28;19910;-75
2021/03/28 10:24:53;;;;;;;;;;;26.50;22.10;;;;;;4993392;28;19910;-77
2021/03/28 10:27:38;;;;;;;;;;;25.50;21.20;;;;;;4993224;28;20001;-76
2021/03/28 10:30:25;;;;;;;;;;;23.80;21.90;;;;;;4992860;28;19954;-74
2021/03/28 10:32:53;;;;;;;;;;;22.40;22.50;;;;;;4993299;28;20336;-77
2021/03/28 10:35:37;;;;;;;;;;;21.00;23.00;;;;;;4993615;28;19921;-77
2021/03/28 10:38:03;;;;;;;;;;;19.40;23.70;;;;;;4992002;28;19922;-80
2021/03/28 10:40:47;;;;;;;;;;;17.70;24.70;;;;;;4993163;28;19910;-79
2021/03/28 10:43:13;;;;;;;;;;;16.90;25.80;;;;;;4992918;28;19917;-78
2021/03/28 10:45:38;;;;;;;;;;;16.00;25.90;;;;;;4993166;28;19910;-79
2021/03/28 10:48:24;;;;;;;;;;;15.30;26.50;;;;;;4991493;28;20285;-79
2021/03/28 10:50:59;;;;;;;;;;;14.80;26.80;;;;;;4989026;28;19914;-79
2021/03/28 10:53:41;;;;;;;;;;;14.50;27.10;;;;;;4992501;28;19931;-78
2021/03/28 10:56:10;;;;;;;;;;;14.50;27.60;;;;;;4992915;28;19964;-77
2021/03/28 10:58:38;;;;;;;;;;;14.40;27.50;;;;;;4989189;28;19910;-77
2021/03/28 11:01:22;;;;;;;;;;;14.20;27.50;;;;;;4993685;28;19909;-81
2021/03/28 11:04:06;;;;;;;;;;;14.00;27.60;;;;;;4992843;28;19910;-78
2021/03/28 11:06:42;;;;;;;;;;;13.70;28.40;;;;;;4992830;28;19917;-77
2021/03/28 11:09:30;;;;;;;;;;;13.20;28.50;;;;;;4975314;28;19910;-78
2021/03/28 11:12:07;;;;;;;;;;;12.80;28.80;;;;;;4992896;28;19917;-77
2021/03/28 11:14:47;;;;;;;;;;;12.40;29.30;;;;;;4978854;28;20330;-77
2021/03/28 11:17:19;;;;;;;;;;;12.30;29.60;;;;;;4975856;28;19921;-76
2021/03/28 11:19:48;;;;;;;;;;;12.20;29.50;;;;;;4996222;28;19917;-77
2021/03/28 11:22:17;;;;;;;;;;;12.10;29.60;;;;;;4990008;28;19914;-77
2021/03/28 11:24:51;;;;;;;;;;;12.00;29.70;;;;;;4991998;28;19995;-78
2021/03/28 11:27:17;;;;;;;;;;;12.00;29.70;;;;;;4995821;28;19910;-78
2021/03/28 11:30:21;;;;;;;;;;;12.00;29.90;;;;;;4991248;28;19921;-77
2021/03/28 11:32:49;;;;;;;;;;;11.90;30.00;;;;;;4955126;29;19910;-76
2021/03/28 11:35:15;;;;;;;;;;;11.80;29.90;;;;;;4954799;29;20422;-76
2021/03/28 11:38:16;;;;;;;;;;;11.90;30.00;;;;;;4974879;28;19910;-79
2021/03/28 11:40:42;;;;;;;;;;;11.80;30.20;;;;;;4954990;28;19911;-79
2021/03/28 11:43:19;;;;;;;;;;;11.90;30.40;;;;;;4987432;28;20386;-79
2021/03/28 11:45:45;;;;;;;;;;;12.00;30.40;;;;;;4995938;28;20328;-77
2021/03/28 11:48:26;;;;;;;;;;;12.20;30.50;;;;;;4996118;28;20023;-77
2021/03/28 11:50:55;;;;;;;;;;;12.40;30.50;;;;;;4996557;28;19910;-78
2021/03/28 11:53:29;;;;;;;;;;;12.50;30.40;;;;;;4997636;28;19918;-76
2021/03/28 11:55:56;;;;;;;;;;;12.40;30.20;;;;;;4978531;28;20259;-77
2021/03/28 11:58:45;;;;;;;;;;;12.50;30.10;;;;;;4995464;28;20286;-77
2021/03/28 12:01:10;;;;;;;;;;;12.50;30.10;;;;;;4994847;28;19979;-76
2021/03/28 12:03:38;;;;;;;;;;;12.50;30.40;;;;;;4995664;28;20001;-77
2021/03/28 12:06:04;;;;;;;;;;;12.60;30.50;;;;;;4995510;28;19967;-76
2021/03/28 12:08:34;;;;;;;;;;;12.80;30.30;;;;;;4995533;28;19914;-84
2021/03/28 12:11:18;;;;;;;;;;;12.90;30.30;;;;;;4996377;28;19956;-82
2021/03/28 12:13:47;;;;;;;;;;;12.90;30.10;;;;;;4995406;28;19910;-81
2021/03/28 12:16:13;;;;;;;;;;;12.90;30.20;;;;;;4977810;28;19960;-83
2021/03/28 12:18:40;;;;;;;;;;;13.10;30.30;;;;;;4995870;28;20296;-87
2021/03/28 12:21:06;;;;;;;;;;;13.10;30.30;;;;;;4996011;28;19968;-81
2021/03/28 12:23:50;;;;;;;;;;;12.90;30.90;;;;;;4985440;28;19910;-80
2021/03/28 12:26:19;;;;;;;;;;;12.70;31.80;;;;;;4993111;28;19996;-79
2021/03/28 12:28:45;;;;;;;;;;;12.80;32.10;;;;;;4982027;28;20380;-75
2021/03/28 12:31:25;;;;;;;;;;;12.90;32.10;;;;;;4977311;28;19918;-80
2021/03/28 12:33:55;;;;;;;;;;;13.20;32.60;;;;;;4973501;28;19910;-80
2021/03/28 12:36:21;;;;;;;;;;;13.40;32.40;;;;;;4983338;28;19910;-81
2021/03/28 12:38:50;;;;;;;;;;;13.40;32.20;;;;;;4995947;28;19910;-81
2021/03/28 12:41:24;;;;;;;;;;;13.20;32.10;;;;;;4973721;28;19979;-80
2021/03/28 12:43:50;;;;;;;;;;;13.10;32.30;;;;;;4990858;28;19916;-77
2021/03/28 12:46:28;;;;;;;;;;;13.00;32.70;;;;;;4970474;28;19910;-82
2021/03/28 12:49:13;;;;;;;;;;;12.90;32.90;;;;;;4989375;28;20313;-79
2021/03/28 12:51:44;;;;;;;;;;;12.70;33.00;;;;;;4984724;28;19973;-83
2021/03/28 12:54:24;;;;;;;;;;;12.40;33.20;;;;;;4977583;28;19925;-81
2021/03/28 12:56:50;;;;;;;;;;;12.20;33.40;;;;;;4972928;28;19910;-78
2021/03/28 12:59:33;;;;;;;;;;;12.10;33.60;;;;;;4994914;28;20032;-78
2021/03/28 13:02:11;;;;;;;;;;;11.90;34.50;;;;;;4994587;28;19910;-79
2021/03/28 13:04:40;;;;;;;;;;;11.60;34.20;;;;;;4994288;28;19909;-80
2021/03/28 13:09:15;;;;;;;17.25;6.82;;;11.30;34.10;;;;;;5023178;27;3149641;-81
2021/03/28 13:11:53;;;;;;;22.08;7.25;;;11.20;35.30;;;;;;5126029;28;20471;-81
2021/03/28 13:14:33;;;;;;;11.13;5.53;;;11.20;35.50;;;;;;5122571;28;20024;-84
2021/03/28 13:17:01;;;;;;;13.38;8.02;;;11.20;35.70;;;;;;5126945;27;20387;-82
2021/03/28 13:19:32;;;;;;;7.63;4.78;;;11.10;35.90;;;;;;5121485;28;20015;-81
2021/03/28 13:22:00;;;;;;;7.30;3.90;;;11.00;34.60;;;;;;5121396;27;20016;-77
2021/03/28 13:24:27;;;;;;;11.93;4.22;;;10.80;34.30;;;;;;5117197;28;20028;-84
2021/03/28 13:26:57;;;;;;;9.20;3.97;;;10.80;34.00;;;;;;5122897;28;20015;-88
2021/03/28 13:29:37;;;;;;;8.50;4.63;;;10.70;33.90;;;;;;5120822;28;20027;-81
2021/03/28 13:32:25;;;;;;;8.23;4.30;;;10.70;33.80;;;;;;5102726;28;20440;-86
2021/03/28 13:34:53;;;;;;;15.43;4.82;;;10.80;34.00;;;;;;5116826;28;20027;-85
2021/03/28 13:37:28;;;;;;;7.97;4.40;;;10.90;33.80;;;;;;5124116;27;20024;-82
2021/03/28 13:40:05;;;;;;;10.80;4.38;;;10.90;33.50;;;;;;5121932;28;20051;-80
2021/03/28 13:42:40;;;;;;;11.02;4.60;;;11.00;33.30;;;;;;5119453;28;20042;-80
2021/03/28 13:45:27;;;;;;;7.20;4.05;;;11.10;33.10;;;;;;5113445;28;20078;-81
2021/03/28 13:48:08;;;;;;;;;;;11.10;33.00;;;;;;5111272;28;20038;-82
2021/03/28 13:50:54;;;;;;;10.55;3.83;;;11.10;33.00;;;;;;5110988;28;19904;-81
2021/03/28 13:53:40;;;;;;;9.13;4.30;;;11.10;33.40;;;;;;5108445;28;20042;-83
2021/03/28 13:56:23;;;;;;;6.70;4.37;;;11.20;33.10;;;;;;5111466;28;20028;-82
2021/03/28 13:59:02;;;;;;;8.55;4.00;;;11.10;32.90;;;;;;5108190;28;20026;-82
2021/03/28 14:01:54;;;;;;;13.57;4.68;;;11.10;33.00;;;;;;5115824;28;20015;-80
2021/03/28 14:04:32;;;;;;;13.73;4.90;;;11.20;33.30;;;;;;5104645;28;20028;-85
2021/03/28 14:07:07;;;;;;;23.00;5.55;;;11.20;33.50;;;;;;5107812;28;20020;-82
2021/03/28 14:09:37;;;;;;;9.18;4.68;;;11.30;34.10;;;;;;5111528;28;20492;-77
2021/03/28 14:12:32;;;;;;;13.60;4.68;;;11.30;33.90;;;;;;5110391;28;20062;-78
2021/03/28 14:15:15;;;;;;;11.90;4.90;;;11.20;34.30;;;;;;5113295;28;20380;-79
2021/03/28 14:17:51;;;;;;;15.27;5.30;;;11.20;34.40;;;;;;5114277;28;20047;-78
2021/03/28 14:20:36;;;;;;;14.30;5.78;;;11.20;34.60;;;;;;5111052;27;20023;-76
2021/03/28 14:23:11;;;;;;;16.98;6.28;;;11.00;36.50;;;;;;5106436;28;20027;-73
2021/03/28 14:25:47;;;;;;;16.88;5.55;;;10.80;37.90;;;;;;5094691;28;20508;-76
2021/03/28 14:28:28;;;;;;;20.45;6.57;;;10.70;38.60;;;;;;5110733;28;20632;-79
2021/03/28 14:31:08;;;;;;;12.10;5.47;;;10.50;39.60;;;;;;5114641;28;20028;-78
2021/03/28 14:33:59;;;;;;;19.20;5.43;;;10.40;41.00;;;;;;5110769;28;20494;-79
2021/03/28 14:36:36;;;;;;;15.68;4.72;;;10.10;42.00;;;;;;5096087;28;20050;-79
2021/03/28 14:39:23;;;;;;;6.93;4.95;;;10.00;43.60;;;;;;5093316;28;20361;-79
2021/03/28 14:42:13;;;;;;;18.15;5.28;;;9.80;43.80;;;;;;5100148;28;20028;-83
2021/03/28 14:45:00;;;;;;;10.38;4.45;;;9.70;44.30;;;;;;5098726;28;20042;-85
2021/03/28 14:47:37;;;;;;;8.38;3.55;;;9.70;44.40;;;;;;5099124;28;20047;-86
2021/03/28 14:50:21;;;;;;;;;;;9.70;44.10;;;;;;5098494;28;20387;-82
2021/03/28 14:52:52;;;;;;;18.25;5.20;;;9.60;43.70;;;;;;5105022;28;19908;-74
2021/03/28 14:55:21;;;;;;;9.25;4.93;;;9.50;44.50;;;;;;5093565;28;20144;-78
2021/03/28 14:58:13;;;;;;;10.93;5.07;;;9.50;44.80;;;;;;5093023;28;20484;-80
2021/03/28 15:00:44;;;;;;;16.33;4.95;;;9.60;44.40;;;;;;5096302;28;20027;-84
2021/03/28 15:03:38;;;;;;;18.42;6.18;;;9.60;44.30;;;;;;5094631;28;20099;-81